SWR102 LSZH-LFSB
Flight info
| Callsign | SWR102 |
|---|---|
| Flight time | 0h 17m |
| Altitude | 8000 |
| Route | VEBIT T52 LUMEL |
| Aircraft | A359/H-SDE2E3GHIJ3J4J5LM1ORWXY/LB1D1 |
Departure
| Time | 2026-05-01 11:25 |
|---|---|
| Airport | Zürich Airport (LSZH) |
Arrival
| Time | 2026-05-01 11:42 |
|---|---|
| Airport | EuroAirport Basel–Mulhouse–Freiburg (LFSB) |
| Time | Latitude | Longitude | Altitude | Speed | Heading |
|---|---|---|---|---|---|
| 2026-05-01 11:17 | 47.45422 | 8.56063 | 1413 ft | 0 kts | 186° |
| 2026-05-01 11:18 | 47.45441 | 8.56067 | 1419 ft | 3 kts | 181° |
| 2026-05-01 11:18 | 47.45460 | 8.56061 | 1416 ft | 3 kts | 139° |
| 2026-05-01 11:19 | 47.45472 | 8.56038 | 1420 ft | 2 kts | 101° |
| 2026-05-01 11:19 | 47.45473 | 8.56036 | 1420 ft | 0 kts | 101° |
| 2026-05-01 11:21 | 47.45471 | 8.56049 | 1420 ft | 9 kts | 101° |
| 2026-05-01 11:22 | 47.45492 | 8.56186 | 1421 ft | 19 kts | 72° |
| 2026-05-01 11:23 | 47.45538 | 8.56363 | 1426 ft | 18 kts | 65° |
| 2026-05-01 11:23 | 47.45584 | 8.56530 | 1423 ft | 15 kts | 84° |
| 2026-05-01 11:23 | 47.45587 | 8.56685 | 1424 ft | 15 kts | 99° |
| 2026-05-01 11:23 | 47.45570 | 8.56833 | 1426 ft | 15 kts | 97° |
| 2026-05-01 11:24 | 47.45574 | 8.56980 | 1428 ft | 13 kts | 56° |
| 2026-05-01 11:24 | 47.45635 | 8.56976 | 1430 ft | 12 kts | 307° |
| 2026-05-01 11:24 | 47.45798 | 8.55065 | 1441 ft | 181 kts | 277° |
| 2026-05-01 11:25 | 47.45940 | 8.53095 | 2348 ft | 200 kts | 277° |
| 2026-05-01 11:25 | 47.46003 | 8.48693 | 3693 ft | 231 kts | 250° |
| 2026-05-01 11:25 | 47.45064 | 8.46665 | 3991 ft | 251 kts | 225° |
| 2026-05-01 11:26 | 47.43899 | 8.44672 | 4591 ft | 259 kts | 232° |
| 2026-05-01 11:26 | 47.41741 | 8.40359 | 6040 ft | 263 kts | 234° |
| 2026-05-01 11:26 | 47.40668 | 8.38138 | 6735 ft | 268 kts | 235° |
| 2026-05-01 11:27 | 47.39584 | 8.35876 | 7335 ft | 272 kts | 234° |
| 2026-05-01 11:27 | 47.38565 | 8.33500 | 7965 ft | 277 kts | 240° |
| 2026-05-01 11:27 | 47.37662 | 8.31002 | 8593 ft | 281 kts | 241° |
| 2026-05-01 11:27 | 47.35160 | 8.23916 | 10182 ft | 292 kts | 241° |
| 2026-05-01 11:28 | 47.31365 | 8.13247 | 10315 ft | 295 kts | 240° |
| 2026-05-01 11:28 | 47.27551 | 8.02531 | 10318 ft | 296 kts | 241° |
| 2026-05-01 11:28 | 47.27069 | 7.90581 | 10307 ft | 299 kts | 278° |
| 2026-05-01 11:29 | 47.28815 | 7.66239 | 10295 ft | 299 kts | 274° |
| 2026-05-01 11:29 | 47.29397 | 7.55314 | 10295 ft | 299 kts | 274° |
| 2026-05-01 11:29 | 47.30280 | 7.38876 | 10287 ft | 298 kts | 274° |
| 2026-05-01 11:30 | 47.31561 | 7.26927 | 10294 ft | 298 kts | 303° |
| 2026-05-01 11:30 | 47.36733 | 7.19990 | 10292 ft | 299 kts | 323° |
| 2026-05-01 11:30 | 47.38385 | 7.18123 | 10295 ft | 300 kts | 322° |
| 2026-05-01 11:30 | 47.43106 | 7.15628 | 10300 ft | 299 kts | 355° |
| 2026-05-01 11:31 | 47.45177 | 7.15335 | 10161 ft | 300 kts | 356° |
| 2026-05-01 11:31 | 47.47226 | 7.15084 | 9745 ft | 287 kts | 356° |
| 2026-05-01 11:31 | 47.49158 | 7.14857 | 9500 ft | 269 kts | 356° |
| 2026-05-01 11:31 | 47.50994 | 7.14648 | 9043 ft | 262 kts | 356° |
| 2026-05-01 11:32 | 47.52818 | 7.14442 | 8265 ft | 266 kts | 355° |
| 2026-05-01 11:32 | 47.54706 | 7.14228 | 7257 ft | 277 kts | 354° |
| 2026-05-01 11:32 | 47.56665 | 7.14001 | 6226 ft | 287 kts | 354° |
| 2026-05-01 11:32 | 47.58678 | 7.13773 | 5205 ft | 293 kts | 354° |
| 2026-05-01 11:33 | 47.60715 | 7.13524 | 4228 ft | 295 kts | 354° |
| 2026-05-01 11:33 | 47.63218 | 7.13448 | 3523 ft | 278 kts | 10° |
| 2026-05-01 11:33 | 47.65144 | 7.20249 | 3300 ft | 190 kts | 146° |
| 2026-05-01 11:33 | 47.59923 | 7.20344 | 3299 ft | 192 kts | 186° |
| 2026-05-01 11:34 | 47.56050 | 7.19697 | 3297 ft | 196 kts | 186° |
| 2026-05-01 11:34 | 47.54688 | 7.19474 | 3306 ft | 197 kts | 186° |
| 2026-05-01 11:34 | 47.53329 | 7.19592 | 3302 ft | 196 kts | 163° |
| 2026-05-01 11:34 | 47.52056 | 7.20292 | 3310 ft | 196 kts | 156° |
| 2026-05-01 11:35 | 47.50812 | 7.21107 | 3306 ft | 196 kts | 155° |
| 2026-05-01 11:35 | 47.49553 | 7.21963 | 3315 ft | 210 kts | 154° |
| 2026-05-01 11:35 | 47.48158 | 7.23087 | 3280 ft | 243 kts | 149° |
| 2026-05-01 11:35 | 47.46881 | 7.24788 | 3282 ft | 252 kts | 123° |
| 2026-05-01 11:36 | 47.46242 | 7.27178 | 3300 ft | 253 kts | 102° |
| 2026-05-01 11:36 | 47.45923 | 7.29728 | 3301 ft | 252 kts | 98° |
| 2026-05-01 11:36 | 47.45653 | 7.32291 | 3301 ft | 252 kts | 98° |
| 2026-05-01 11:36 | 47.45478 | 7.33976 | 3298 ft | 252 kts | 98° |
| 2026-05-01 11:37 | 47.45214 | 7.36537 | 3293 ft | 252 kts | 98° |
| 2026-05-01 11:37 | 47.44953 | 7.39092 | 3294 ft | 252 kts | 98° |
| 2026-05-01 11:37 | 47.44689 | 7.41657 | 3299 ft | 252 kts | 98° |
| 2026-05-01 11:37 | 47.44424 | 7.44213 | 3293 ft | 252 kts | 98° |
| 2026-05-01 11:38 | 47.44175 | 7.46775 | 3291 ft | 252 kts | 95° |
| 2026-05-01 11:38 | 47.44420 | 7.49305 | 3302 ft | 251 kts | 66° |
| 2026-05-01 11:38 | 47.45457 | 7.51325 | 3288 ft | 244 kts | 37° |
| 2026-05-01 11:38 | 47.46898 | 7.52340 | 3296 ft | 217 kts | 17° |
| 2026-05-01 11:39 | 47.48328 | 7.52891 | 3317 ft | 210 kts | 13° |
| 2026-05-01 11:39 | 47.49742 | 7.53380 | 3313 ft | 208 kts | 13° |
| 2026-05-01 11:39 | 47.51074 | 7.53931 | 3325 ft | 184 kts | 18° |
| 2026-05-01 11:39 | 47.52230 | 7.54549 | 3122 ft | 170 kts | 24° |
| 2026-05-01 11:40 | 47.53295 | 7.55321 | 2580 ft | 172 kts | 20° |
| 2026-05-01 11:40 | 47.54470 | 7.55602 | 2139 ft | 171 kts | 2° |
| 2026-05-01 11:40 | 47.55624 | 7.55287 | 1767 ft | 169 kts | 340° |
| 2026-05-01 11:40 | 47.56646 | 7.54507 | 1465 ft | 160 kts | 333° |
| 2026-05-01 11:41 | 47.57605 | 7.53862 | 1250 ft | 147 kts | 341° |
| 2026-05-01 11:41 | 47.58515 | 7.53250 | 1027 ft | 137 kts | 335° |
| 2026-05-01 11:41 | 47.59325 | 7.52674 | 903 ft | 125 kts | 337° |
| 2026-05-01 11:41 | 47.59996 | 7.52222 | 899 ft | 73 kts | 334° |
| 2026-05-01 11:42 | 47.60334 | 7.51984 | 896 ft | 43 kts | 335° |
| 2026-05-01 11:42 | 47.60537 | 7.51940 | 894 ft | 2 kts | 52° |